createdAt,value
2023-04-16T00:00:11.287Z,7.52
2023-04-16T00:05:15.080Z,7.51
2023-04-16T00:10:20.700Z,7.55
2023-04-16T00:15:25.719Z,7.52
2023-04-16T00:20:28.606Z,7.47
2023-04-16T00:25:32.969Z,7.48
2023-04-16T00:30:36.159Z,7.49
2023-04-16T00:35:40.327Z,7.49
2023-04-16T00:40:44.836Z,7.47
2023-04-16T00:45:47.669Z,7.46
2023-04-16T00:50:50.921Z,7.47
2023-04-16T00:55:57.190Z,7.45
2023-04-16T01:01:02.527Z,7.48
2023-04-16T01:06:07.690Z,7.48
2023-04-16T01:11:13.336Z,7.53
2023-04-16T01:16:16.126Z,7.59
2023-04-16T01:21:24.508Z,7.55
2023-04-16T01:26:27.296Z,7.62
2023-04-16T01:31:30.975Z,7.62
2023-04-16T01:36:35.060Z,7.67
2023-04-16T01:41:40.702Z,7.64
2023-04-16T01:46:44.802Z,7.64
2023-04-16T01:51:50.239Z,7.68
2023-04-16T01:57:11.266Z,7.66
2023-04-16T02:02:32.199Z,7.69
2023-04-16T02:07:37.679Z,7.72
2023-04-16T02:12:41.391Z,7.62
2023-04-16T02:17:44.072Z,7.67
2023-04-16T02:22:50.376Z,7.67
2023-04-16T02:28:12.764Z,7.66
2023-04-16T02:33:18.174Z,7.67
2023-04-16T02:38:23.642Z,7.69
2023-04-16T02:43:27.302Z,7.70
2023-04-16T02:48:31.060Z,7.67
2023-04-16T02:53:58.021Z,7.70
2023-04-16T02:59:02.885Z,7.70
2023-04-16T03:04:26.337Z,7.71
2023-04-16T03:09:30.629Z,7.72
2023-04-16T03:14:35.387Z,7.68
2023-04-16T03:19:38.388Z,7.66
2023-04-16T03:24:42.590Z,7.61
2023-04-16T03:29:47.322Z,7.56
2023-04-16T03:34:50.158Z,7.56
2023-04-16T03:39:54.337Z,7.59
2023-04-16T03:44:57.543Z,7.60
2023-04-16T03:50:00.507Z,7.61
2023-04-16T03:55:07.027Z,7.59
2023-04-16T04:00:11.526Z,7.62
2023-04-16T04:05:14.364Z,7.64
2023-04-16T04:10:18.416Z,7.69
2023-04-16T04:15:23.258Z,7.69
2023-04-16T04:20:26.432Z,7.68
2023-04-16T04:25:31.830Z,7.68
2023-04-16T04:30:38.605Z,7.68
2023-04-16T04:35:41.384Z,7.64
2023-04-16T04:40:45.739Z,7.68
2023-04-16T04:45:49.404Z,7.72
2023-04-16T04:50:55.391Z,7.70
2023-04-16T04:56:11.094Z,7.77
2023-04-16T05:01:15.741Z,7.76
2023-04-16T05:06:19.515Z,7.80
2023-04-16T05:11:24.071Z,7.83
2023-04-16T05:16:26.765Z,7.88
2023-04-16T05:21:29.713Z,7.84
2023-04-16T05:26:34.836Z,7.86
2023-04-16T05:31:38.832Z,7.95
2023-04-16T05:36:41.814Z,7.94
2023-04-16T05:42:07.075Z,7.97
2023-04-16T05:47:10.367Z,8.06
2023-04-16T05:52:14.348Z,8.09
2023-04-16T05:57:18.833Z,8.09
2023-04-16T06:02:21.619Z,8.09
2023-04-16T06:07:24.432Z,8.05
2023-04-16T06:12:28.577Z,8.22
2023-04-16T06:17:31.254Z,8.28
2023-04-16T06:22:33.893Z,8.41
2023-04-16T06:27:38.036Z,8.55
2023-04-16T06:32:41.256Z,8.64
2023-04-16T06:37:44.105Z,8.67
2023-04-16T06:42:48.060Z,8.79
2023-04-16T06:47:51.171Z,8.76
2023-04-16T06:52:54.311Z,8.73
2023-04-16T06:57:59.943Z,8.57
2023-04-16T07:03:03.541Z,8.76
2023-04-16T07:08:07.316Z,9.00
2023-04-16T07:13:13.792Z,9.25
2023-04-16T07:18:20.257Z,9.43
2023-04-16T07:23:23.531Z,9.43
2023-04-16T07:28:28.886Z,9.71
2023-04-16T07:33:32.312Z,9.80
2023-04-16T07:38:35.831Z,9.95
2023-04-16T07:43:44.441Z,10.11
2023-04-16T07:48:47.742Z,10.33
2023-04-16T07:53:50.303Z,10.85
2023-04-16T07:59:02.831Z,11.41
2023-04-16T08:04:14.450Z,11.67
2023-04-16T08:09:18.622Z,11.68
2023-04-16T08:14:23.431Z,11.80
2023-04-16T08:19:26.624Z,11.87
2023-04-16T08:24:29.511Z,11.79
2023-04-16T08:29:34.768Z,11.90
2023-04-16T08:34:38.278Z,12.23
2023-04-16T08:39:42.529Z,12.69
2023-04-16T08:44:59.554Z,13.48
2023-04-16T08:50:06.194Z,14.59
2023-04-16T08:55:14.960Z,14.49
2023-04-16T09:00:20.827Z,14.62
2023-04-16T09:05:25.920Z,14.41
2023-04-16T09:10:30.754Z,14.38
2023-04-16T09:15:37.220Z,15.08
2023-04-16T09:20:40.889Z,14.33
2023-04-16T09:25:46.218Z,13.93
2023-04-16T09:30:50.669Z,13.46
2023-04-16T09:35:55.137Z,13.30
2023-04-16T09:41:07.911Z,13.43
2023-04-16T09:46:15.713Z,13.47
2023-04-16T09:51:19.328Z,14.11
2023-04-16T09:56:27.196Z,14.48
2023-04-16T10:01:32.868Z,15.73
2023-04-16T10:06:35.972Z,16.64
2023-04-16T10:11:40.661Z,17.21
2023-04-16T10:16:45.448Z,17.00
2023-04-16T10:21:49.997Z,18.36
2023-04-16T10:26:53.713Z,17.30
2023-04-16T10:31:59.338Z,16.71
2023-04-16T10:37:02.228Z,18.03
2023-04-16T10:42:11.670Z,18.78
2023-04-16T10:47:18.794Z,18.96
2023-04-16T10:52:22.529Z,20.79
2023-04-16T10:57:30.653Z,19.31
2023-04-16T11:02:35.212Z,18.67
2023-04-16T11:07:39.473Z,19.08
2023-04-16T11:12:48.324Z,18.64
2023-04-16T11:17:57.765Z,18.98
2023-04-16T11:23:01.000Z,19.59
2023-04-16T11:28:06.484Z,19.28
2023-04-16T11:33:34.592Z,19.84
2023-04-16T11:38:38.718Z,19.01
2023-04-16T11:43:41.909Z,18.39
2023-04-16T11:48:54.142Z,17.30
2023-04-16T11:53:58.800Z,16.98
2023-04-16T11:59:13.235Z,16.50
2023-04-16T12:04:20.845Z,16.37
2023-04-16T12:09:27.398Z,17.09
2023-04-16T12:14:33.865Z,17.85
2023-04-16T12:19:57.333Z,18.39
2023-04-16T12:25:03.012Z,19.06
2023-04-16T12:30:08.273Z,18.41
2023-04-16T12:35:14.239Z,17.24
2023-04-16T12:40:24.639Z,16.65
2023-04-16T12:45:29.274Z,15.99
2023-04-16T12:50:35.308Z,15.86
2023-04-16T12:55:38.117Z,15.88
2023-04-16T13:00:41.471Z,16.47
2023-04-16T13:05:47.845Z,17.15
2023-04-16T13:10:50.717Z,17.12
2023-04-16T13:15:53.735Z,16.57
2023-04-16T13:20:59.334Z,15.42
2023-04-16T13:26:04.280Z,14.40
2023-04-16T13:31:08.355Z,13.41
2023-04-16T13:36:16.388Z,12.83
2023-04-16T13:41:20.382Z,12.69
2023-04-16T13:46:23.380Z,12.60
2023-04-16T13:51:29.213Z,12.62
2023-04-16T13:56:33.018Z,12.64
2023-04-16T14:01:39.946Z,12.60
2023-04-16T14:06:46.473Z,12.56
2023-04-16T14:11:50.202Z,12.47
2023-04-16T14:16:55.439Z,12.26
2023-04-16T14:21:59.409Z,12.19
2023-04-16T14:27:01.995Z,11.82
2023-04-16T14:32:05.114Z,11.61
2023-04-16T14:37:09.134Z,11.39
2023-04-16T14:42:11.788Z,11.14
2023-04-16T14:47:14.446Z,11.21
2023-04-16T14:52:18.413Z,11.29
2023-04-16T14:57:21.003Z,11.33
2023-04-16T15:02:23.870Z,11.40
2023-04-16T15:07:27.985Z,11.36
2023-04-16T15:12:30.815Z,11.28
2023-04-16T15:17:33.629Z,11.29
2023-04-16T15:22:38.115Z,11.19
2023-04-16T15:27:40.814Z,11.09
2023-04-16T15:32:44.849Z,10.86
2023-04-16T15:37:48.973Z,10.68
2023-04-16T15:42:53.580Z,10.55
2023-04-16T15:47:56.498Z,10.47
2023-04-16T15:53:00.535Z,10.52
2023-04-16T15:58:03.207Z,10.57
2023-04-16T16:03:06.146Z,10.48
2023-04-16T16:08:10.304Z,10.55
2023-04-16T16:13:18.108Z,10.71
2023-04-16T16:18:22.001Z,10.95
2023-04-16T16:23:27.110Z,11.10
2023-04-16T16:28:29.727Z,11.27
2023-04-16T16:33:32.543Z,11.33
2023-04-16T16:38:36.453Z,11.45
2023-04-16T16:43:39.044Z,11.77
2023-04-16T16:48:41.616Z,11.90
2023-04-16T16:53:46.290Z,12.37
2023-04-16T16:58:49.053Z,12.24
2023-04-16T17:03:51.929Z,11.74
2023-04-16T17:08:56.085Z,11.38
2023-04-16T17:13:58.734Z,11.10
2023-04-16T17:19:01.390Z,10.98
2023-04-16T17:24:05.474Z,10.93
2023-04-16T17:29:08.094Z,10.98
2023-04-16T17:34:10.836Z,11.01
2023-04-16T17:39:15.014Z,11.00
2023-04-16T17:44:17.551Z,11.05
2023-04-16T17:49:20.232Z,11.12
2023-04-16T17:54:24.441Z,11.04
2023-04-16T17:59:27.434Z,10.81
2023-04-16T18:04:30.398Z,10.57
2023-04-16T18:09:34.411Z,10.36
2023-04-16T18:14:38.784Z,10.23
2023-04-16T18:19:43.700Z,10.03
2023-04-16T18:24:47.961Z,9.84
2023-04-16T18:29:51.405Z,9.62
2023-04-16T18:34:54.095Z,9.47
2023-04-16T18:39:58.294Z,9.35
2023-04-16T18:45:02.018Z,9.25
2023-04-16T18:50:05.461Z,9.21
2023-04-16T18:55:10.013Z,9.28
2023-04-16T19:00:15.395Z,9.34
2023-04-16T19:05:18.818Z,9.35
2023-04-16T19:10:23.345Z,9.28
2023-04-16T19:15:31.649Z,9.03
2023-04-16T19:20:37.841Z,8.81
2023-04-16T19:25:42.496Z,8.63
2023-04-16T19:30:46.684Z,8.49
2023-04-16T19:35:49.624Z,8.35
2023-04-16T19:40:56.374Z,8.29
2023-04-16T19:45:59.348Z,8.27
2023-04-16T19:51:03.971Z,8.41
2023-04-16T19:56:08.159Z,8.56
2023-04-16T20:01:11.179Z,8.75
2023-04-16T20:06:14.128Z,8.87
2023-04-16T20:11:18.729Z,8.78
2023-04-16T20:16:24.528Z,8.66
2023-04-16T20:21:27.958Z,8.64
2023-04-16T20:26:34.042Z,8.76
2023-04-16T20:31:36.900Z,8.85
2023-04-16T20:36:39.599Z,8.92
2023-04-16T20:41:44.443Z,8.93
2023-04-16T20:46:49.585Z,8.95
2023-04-16T20:51:52.422Z,8.90
2023-04-16T20:56:57.011Z,8.82
2023-04-16T21:01:59.764Z,8.74
2023-04-16T21:07:03.855Z,8.69
2023-04-16T21:12:08.471Z,8.52
2023-04-16T21:17:11.156Z,8.25
2023-04-16T21:22:13.756Z,8.04
2023-04-16T21:27:17.820Z,7.98
2023-04-16T21:32:20.695Z,8.01
2023-04-16T21:37:23.441Z,8.03
2023-04-16T21:42:27.615Z,8.06
2023-04-16T21:47:30.356Z,8.01
2023-04-16T21:52:33.804Z,7.97
2023-04-16T21:57:39.706Z,7.92
2023-04-16T22:02:43.334Z,7.85
2023-04-16T22:07:46.200Z,7.78
2023-04-16T22:12:54.965Z,7.77
2023-04-16T22:17:57.657Z,7.83
2023-04-16T22:23:00.551Z,7.85
2023-04-16T22:28:04.678Z,7.83
2023-04-16T22:33:08.452Z,7.85
2023-04-16T22:38:11.355Z,7.87
2023-04-16T22:43:16.119Z,7.80
2023-04-16T22:48:18.805Z,7.76
2023-04-16T22:53:22.513Z,7.69
2023-04-16T22:58:26.624Z,7.69
2023-04-16T23:03:29.474Z,7.62
2023-04-16T23:08:32.190Z,7.62
2023-04-16T23:13:36.222Z,7.62
2023-04-16T23:18:38.864Z,7.62
2023-04-16T23:23:41.499Z,7.65
2023-04-16T23:28:45.456Z,7.59
2023-04-16T23:33:48.067Z,7.56
2023-04-16T23:38:50.730Z,7.56
2023-04-16T23:43:54.693Z,7.52
2023-04-16T23:48:58.406Z,7.51
2023-04-16T23:54:01.067Z,7.48
2023-04-16T23:59:05.069Z,7.47
